• Join FlightAware (Why Join?)
  • Login
  • US Flag 
02:26AM EST


 

Airport Tracker/Info


-or-


 

Live Flight TrackerFlight Track Log ✈ EGF3681 ✈ 27-Aug-2013 ✈ KORD - KDAY

Flight Track Log - Related Links

Times and Time Zones

All times are in EDT time to prevent confusion due to time zone crossing. See the EGF3681 flight status page for this flight to view local times or setup timezone preferences in your user account.

Time Position Orientation Groundspeed Altitude Reporting Facility
EDT Latitude Longitude Course Direction KTS MPH feet Rate Location/Type
10:49PM 42.0167 -87.9333 95° East 194 223 2,100  Level Chicago TRACON
10:50PM 42.0667 -87.8667 45° Northeast 252 290 4,500 2,100 Climbing Chicago TRACON
10:51PM 41.9667 -87.6333 90° East  Level FlightAware Approximate
10:52PM 41.9634 -87.5003 98° East  Level FlightAware Approximate
10:53PM 41.9501 -87.3682 98° East  Level FlightAware Approximate
10:53PM 42.1544 -87.6861 57° Northeast 300 345 9,100  Level Chicago Center
10:54PM 41.9407 -87.2355 95° East  Level FlightAware Approximate
10:54PM 42.1136 -87.5792 117° Southeast 319 367 11,100  Level Chicago Center
10:55PM 42.0767 -87.4692 114° Southeast 323 372 13,000 1,620 Climbing Chicago Center
10:56PM 42.0392 -87.3519 113° Southeast 339 390 14,500 1,080 Climbing Chicago Center
10:57PM 41.9981 -87.2275 114° Southeast 362 417 15,300 840 Climbing Chicago Center
10:58PM 41.9539 -87.0950 114° Southeast 385 443 16,300 960 Climbing Chicago Center
10:59PM 41.9444 -86.9503 95° East 394 453 17,300 960 Climbing Chicago Center
11:00PM 41.8975 -86.8169 115° Southeast 413 475 18,300 960 Climbing Chicago Center
11:01PM 41.8253 -86.6956 129° Southeast 417 480 19,300 1,020 Climbing Chicago Center
11:02PM 41.7456 -86.5528 127° Southeast 422 486 20,400 1,020 Climbing Chicago Center
11:03PM 41.6753 -86.4250 126° Southeast 427 491 21,400 900 Climbing Chicago Center
11:04PM 41.6031 -86.2969 127° Southeast 433 498 22,300 780 Climbing Chicago Center
11:05PM 41.5311 -86.1708 127° Southeast 431 496 23,000 300 Climbing Chicago Center
11:06PM 41.4572 -86.0400 127° Southeast 442 509 23,000  Level Chicago Center
11:07PM 41.3800 -85.9033 127° Southeast 462 532 23,000  Level Chicago Center
11:08PM 41.3019 -85.7669 127° Southeast 468 539 23,000  Level Chicago Center
11:09PM 41.2233 -85.6289 127° Southeast 474 545 23,000  Level Chicago Center
11:10PM 41.1433 -85.4903 127° Southeast 475 547 23,000 -480 Level Chicago Center
11:11PM 41.0469 -85.3244 128° Southeast 478 550 22,100 -1,500 Descending Chicago Center
11:12PM 40.9669 -85.1844 127° Southeast 481 554 20,000 -1,980 Descending Chicago Center
11:13PM 40.8903 -85.0550 128° Southeast 461 531 18,100 -1,560 Descending Chicago Center
11:14PM 40.8142 -84.9264 128° Southeast 449 517 16,900 -1,080 Descending Chicago Center
11:15PM 40.7397 -84.7989 128° Southeast 444 511 16,000 -900 Descending Chicago Center
11:16PM 40.6664 -84.6772 128° Southeast 431 496 15,100 -600 Descending Chicago Center
11:17PM 40.5953 -84.5550 127° Southeast 425 489 14,900 -1,080 Descending Chicago Center
11:18PM 40.5206 -84.4308 128° Southeast 422 486 13,000 -2,040 Descending Indianapolis Center
11:19PM 40.4442 -84.3314 135° Southeast 391 450 11,000 -1,440 Descending Indianapolis Center
11:20PM 40.3614 -84.2567 145° Southeast 325 374 10,100 -1,620 Descending Indianapolis Center
11:21PM 40.2958 -84.1969 145° Southeast 309 356 7,800 -2,220 Descending Indianapolis Center
11:22PM 40.2222 -84.1608 159° South 295 339 5,700 -1,860 Descending Indianapolis Center
11:23PM 40.1539 -84.1289 160° South 274 315 4,300 -1,020 Descending Indianapolis Center
11:24PM 40.0792 -84.1075 168° South 274 315 3,700 -660 Descending Indianapolis Center
11:25PM 40.0006 -84.1044 178° South 221 254 3,000 -600 Descending Indianapolis Center
11:26PM 39.9494 -84.1117 186° South 148 170 2,500 -480 Descending Indianapolis Center
11:27PM 39.9333 -84.1422 235° Southwest 165 190 2,100 -540 Descending Indianapolis Center
11:28PM 39.9139 -84.1769 234° Southwest 136 157 1,500 -360 Descending Indianapolis Center
11:29PM 39.8947 -84.2128 235° Southwest 133 153 1,400 -120 Descending Indianapolis Center